Time,TemperatureF,DewpointF,PressureIn,WindDirection,WindDirectionDegrees,WindSpeedMPH,WindSpeedGustMPH,Humidity,HourlyPrecipIn,Conditions,Clouds,dailyrainin,SoftwareType,DateUTC
2013-07-15 00:01:00,77.6,73.4,30.24,North,355,0.0,0.0,87,0.00,,---,0.00,VWS V13.01,2013-07-15 04:01:00,
2013-07-15 00:06:00,77.5,73.3,30.24,North,355,0.0,0.0,87,0.00,,---,0.00,VWS V13.01,2013-07-15 04:06:00,
2013-07-15 00:11:00,77.3,73.1,30.24,SW,236,0.0,0.0,87,0.00,,---,0.00,VWS V13.01,2013-07-15 04:11:00,
2013-07-15 00:16:00,77.2,73.0,30.24,SW,236,0.0,0.0,87,0.00,,---,0.00,VWS V13.01,2013-07-15 04:16:00,
2013-07-15 00:21:00,77.1,72.9,30.24,SW,236,0.0,0.0,87,0.00,,---,0.00,VWS V13.01,2013-07-15 04:21:00,
2013-07-15 00:26:00,77.1,72.9,30.24,SW,236,0.0,0.0,87,0.00,,---,0.00,VWS V13.01,2013-07-15 04:26:00,
2013-07-15 00:31:00,77.0,72.8,30.24,SW,236,0.0,0.0,87,0.00,,---,0.00,VWS V13.01,2013-07-15 04:31:00,
2013-07-15 00:36:00,76.9,72.7,30.24,SW,234,0.0,0.0,87,0.00,,---,0.00,VWS V13.01,2013-07-15 04:36:00,
2013-07-15 00:41:00,76.8,72.6,30.24,SW,234,0.0,0.0,87,0.00,,---,0.00,VWS V13.01,2013-07-15 04:41:00,
2013-07-15 00:46:00,76.7,72.5,30.24,WSW,237,0.0,1.0,87,0.00,,---,0.00,VWS V13.01,2013-07-15 04:46:00,
2013-07-15 00:51:00,76.7,72.5,30.24,WSW,237,0.0,0.0,87,0.00,,---,0.00,VWS V13.01,2013-07-15 04:51:00,
2013-07-15 00:56:00,76.6,72.8,30.24,WSW,237,0.0,0.0,88,0.00,,---,0.00,VWS V13.01,2013-07-15 04:56:00,
2013-07-15 01:01:00,76.6,72.8,30.24,WSW,237,0.0,1.0,88,0.00,,---,0.00,VWS V13.01,2013-07-15 05:01:00,
2013-07-15 01:06:00,76.5,73.0,30.24,WSW,237,0.0,0.0,89,0.00,,---,0.00,VWS V13.01,2013-07-15 05:06:00,
2013-07-15 01:11:00,76.5,73.0,30.24,WSW,237,0.0,0.0,89,0.00,,---,0.00,VWS V13.01,2013-07-15 05:11:00,
2013-07-15 01:16:00,76.4,72.9,30.23,WSW,237,0.0,0.0,89,0.00,,---,0.00,VWS V13.01,2013-07-15 05:16:00,
2013-07-15 01:21:00,76.4,72.9,30.23,WSW,237,0.0,0.0,89,0.00,,---,0.00,VWS V13.01,2013-07-15 05:21:00,
2013-07-15 01:26:00,76.3,73.2,30.23,SSE,167,0.0,1.0,90,0.00,,---,0.00,VWS V13.01,2013-07-15 05:26:00,
2013-07-15 01:31:00,76.3,73.2,30.23,SSW,196,1.0,1.0,90,0.00,,---,0.00,VWS V13.01,2013-07-15 05:31:00,
2013-07-15 01:36:00,76.2,73.1,30.23,NW,322,0.0,0.0,90,0.00,,---,0.00,VWS V13.01,2013-07-15 05:36:00,
2013-07-15 01:41:00,76.2,73.1,30.23,NW,322,0.0,1.0,90,0.00,,---,0.00,VWS V13.01,2013-07-15 05:41:00,
2013-07-15 01:46:00,76.1,73.0,30.23,North,355,1.0,1.0,90,0.00,,---,0.00,VWS V13.01,2013-07-15 05:46:00,
2013-07-15 01:51:00,76.1,73.0,30.23,NW,315,0.0,0.0,90,0.00,,---,0.00,VWS V13.01,2013-07-15 05:51:00,
2013-07-15 01:56:00,76.0,73.2,30.23,NNW,346,0.0,0.0,91,0.00,,---,0.00,VWS V13.01,2013-07-15 05:56:00,
2013-07-15 02:01:00,76.0,73.2,30.22,North,351,0.0,0.0,91,0.00,,---,0.00,VWS V13.01,2013-07-15 06:01:00,
2013-07-15 02:06:00,75.9,73.1,30.23,North,351,0.0,0.0,91,0.00,,---,0.00,VWS V13.01,2013-07-15 06:06:00,
2013-07-15 02:11:00,75.8,73.0,30.22,West,279,0.0,0.0,91,0.00,,---,0.00,VWS V13.01,2013-07-15 06:11:00,
2013-07-15 02:16:00,75.7,72.9,30.22,WNW,299,0.0,0.0,91,0.00,,---,0.00,VWS V13.01,2013-07-15 06:16:00,
2013-07-15 02:21:00,75.7,72.9,30.22,NNW,329,0.0,4.0,91,0.00,,---,0.00,VWS V13.01,2013-07-15 06:21:00,
2013-07-15 02:26:00,75.6,73.1,30.23,WNW,284,0.0,3.0,92,0.00,,---,0.00,VWS V13.01,2013-07-15 06:26:00,
2013-07-15 02:31:00,75.6,73.1,30.22,SE,136,0.0,1.0,92,0.00,,---,0.00,VWS V13.01,2013-07-15 06:31:00,
2013-07-15 02:36:00,75.5,73.0,30.23,SE,136,0.0,0.0,92,0.00,,---,0.00,VWS V13.01,2013-07-15 06:36:00,
2013-07-15 02:41:00,75.5,73.0,30.23,NNW,335,0.0,0.0,92,0.00,,---,0.00,VWS V13.01,2013-07-15 06:41:00,
2013-07-15 02:46:00,75.5,73.0,30.23,NNW,335,0.0,1.0,92,0.00,,---,0.00,VWS V13.01,2013-07-15 06:46:00,
2013-07-15 02:51:00,75.5,73.0,30.22,NNW,327,0.0,3.0,92,0.00,,---,0.00,VWS V13.01,2013-07-15 06:51:00,
2013-07-15 02:56:00,75.5,73.0,30.22,North,9,0.0,0.0,92,0.00,,---,0.00,VWS V13.01,2013-07-15 06:56:00,
2013-07-15 03:01:00,75.5,73.0,30.22,NNE,17,0.0,0.0,92,0.00,,---,0.00,VWS V13.01,2013-07-15 07:01:00,
2013-07-15 03:06:00,75.5,73.0,30.22,NNE,17,0.0,0.0,92,0.00,,---,0.00,VWS V13.01,2013-07-15 07:06:00,
2013-07-15 03:11:00,75.6,73.1,30.22,NNE,17,0.0,0.0,92,0.00,,---,0.00,VWS V13.01,2013-07-15 07:11:00,
2013-07-15 03:16:00,75.6,73.1,30.22,North,5,0.0,0.0,92,0.00,,---,0.00,VWS V13.01,2013-07-15 07:16:00,
2013-07-15 03:21:00,75.5,73.0,30.22,NW,316,0.0,3.0,92,0.00,,---,0.00,VWS V13.01,2013-07-15 07:21:00,
2013-07-15 03:26:00,75.5,73.0,30.22,NW,316,0.0,2.0,92,0.00,,---,0.00,VWS V13.01,2013-07-15 07:26:00,
2013-07-15 03:31:00,75.5,73.0,30.22,NW,316,0.0,0.0,92,0.00,,---,0.00,VWS V13.01,2013-07-15 07:31:00,
2013-07-15 03:36:00,75.5,73.3,30.22,NW,320,0.0,0.0,93,0.00,,---,0.00,VWS V13.01,2013-07-15 07:36:00,
2013-07-15 03:41:00,75.5,73.3,30.22,NW,320,0.0,0.0,93,0.00,,---,0.00,VWS V13.01,2013-07-15 07:41:00,
2013-07-15 03:46:00,75.5,73.3,30.22,WNW,296,1.0,1.0,93,0.00,,---,0.00,VWS V13.01,2013-07-15 07:46:00,
2013-07-15 03:51:00,75.4,73.2,30.22,NNW,341,0.0,2.0,93,0.00,,---,0.00,VWS V13.01,2013-07-15 07:51:00,
2013-07-15 03:56:00,75.4,73.2,30.23,NNW,341,0.0,1.0,93,0.00,,---,0.00,VWS V13.01,2013-07-15 07:56:00,
2013-07-15 04:01:00,75.4,73.2,30.22,WNW,293,0.0,0.0,93,0.00,,---,0.00,VWS V13.01,2013-07-15 08:01:00,
2013-07-15 04:06:00,75.4,73.2,30.22,WNW,293,0.0,0.0,93,0.00,,---,0.00,VWS V13.01,2013-07-15 08:06:00,
2013-07-15 04:11:00,75.4,73.2,30.23,WNW,293,0.0,0.0,93,0.00,,---,0.00,VWS V13.01,2013-07-15 08:11:00,
2013-07-15 04:16:00,75.3,73.1,30.22,WNW,293,0.0,0.0,93,0.00,,---,0.00,VWS V13.01,2013-07-15 08:16:00,
2013-07-15 04:21:00,75.3,73.1,30.22,WNW,293,0.0,0.0,93,0.00,,---,0.00,VWS V13.01,2013-07-15 08:21:00,
2013-07-15 04:26:00,75.2,73.0,30.23,WNW,293,0.0,0.0,93,0.00,,---,0.00,VWS V13.01,2013-07-15 08:26:00,
2013-07-15 04:31:00,75.2,73.0,30.23,WNW,293,0.0,0.0,93,0.00,,---,0.00,VWS V13.01,2013-07-15 08:31:00,
2013-07-15 04:36:00,75.1,72.9,30.22,WNW,293,0.0,0.0,93,0.00,,---,0.00,VWS V13.01,2013-07-15 08:36:00,
2013-07-15 04:41:00,75.1,72.9,30.23,WNW,293,0.0,0.0,93,0.00,,---,0.00,VWS V13.01,2013-07-15 08:41:00,
2013-07-15 04:46:00,75.0,72.8,30.23,WNW,293,0.0,0.0,93,0.00,,---,0.00,VWS V13.01,2013-07-15 08:46:00,
2013-07-15 04:51:00,75.0,72.8,30.23,NNW,328,0.0,0.0,93,0.00,,---,0.00,VWS V13.01,2013-07-15 08:51:00,
2013-07-15 04:56:00,74.9,72.7,30.23,NNW,328,0.0,0.0,93,0.00,,---,0.00,VWS V13.01,2013-07-15 08:56:00,
2013-07-15 05:01:00,74.9,72.7,30.23,NNW,328,0.0,0.0,93,0.00,,---,0.00,VWS V13.01,2013-07-15 09:01:00,
2013-07-15 05:06:00,74.9,72.7,30.23,NNW,328,0.0,0.0,93,0.00,,---,0.00,VWS V13.01,2013-07-15 09:06:00,
2013-07-15 05:11:00,74.8,72.6,30.23,NNW,328,0.0,0.0,93,0.00,,---,0.00,VWS V13.01,2013-07-15 09:11:00,
2013-07-15 05:16:00,74.8,72.6,30.23,NNW,328,0.0,0.0,93,0.00,,---,0.00,VWS V13.01,2013-07-15 09:16:00,
2013-07-15 05:21:00,74.7,72.6,30.23,WNW,288,0.0,0.0,93,0.00,,---,0.00,VWS V13.01,2013-07-15 09:21:00,
2013-07-15 05:26:00,74.6,72.4,30.23,West,269,0.0,0.0,93,0.00,,---,0.00,VWS V13.01,2013-07-15 09:26:00,
2013-07-15 05:31:00,74.6,72.4,30.23,West,269,0.0,0.0,93,0.00,,---,0.00,VWS V13.01,2013-07-15 09:31:00,
2013-07-15 05:36:00,74.5,72.3,30.23,West,269,0.0,0.0,93,0.00,,---,0.00,VWS V13.01,2013-07-15 09:36:00,
2013-07-15 05:41:00,74.5,72.3,30.23,West,269,0.0,0.0,93,0.00,,---,0.00,VWS V13.01,2013-07-15 09:41:00,
2013-07-15 05:46:00,74.4,72.2,30.23,West,269,0.0,0.0,93,0.00,,---,0.00,VWS V13.01,2013-07-15 09:46:00,
2013-07-15 05:51:00,74.3,72.5,30.23,West,269,0.0,0.0,94,0.00,,---,0.00,VWS V13.01,2013-07-15 09:51:00,
2013-07-15 05:56:00,74.3,72.5,30.23,West,269,0.0,0.0,94,0.00,,---,0.00,VWS V13.01,2013-07-15 09:56:00,
2013-07-15 06:01:00,74.2,72.4,30.23,West,269,0.0,0.0,94,0.00,,---,0.00,VWS V13.01,2013-07-15 10:01:00,
2013-07-15 06:06:00,74.2,72.1,30.23,West,269,0.0,0.0,93,0.00,,---,0.00,VWS V13.01,2013-07-15 10:06:00,
2013-07-15 06:11:00,74.1,72.3,30.24,WNW,283,0.0,0.0,94,0.00,,---,0.00,VWS V13.01,2013-07-15 10:11:00,
2013-07-15 06:16:00,74.1,72.3,30.24,WNW,283,0.0,1.0,94,0.00,,---,0.00,VWS V13.01,2013-07-15 10:16:00,
2013-07-15 06:21:00,74.1,72.3,30.24,WNW,283,1.0,1.0,94,0.00,,---,0.00,VWS V13.01,2013-07-15 10:21:00,
2013-07-15 06:26:00,74.1,72.3,30.24,WNW,283,0.0,0.0,94,0.00,,---,0.00,VWS V13.01,2013-07-15 10:26:00,
2013-07-15 06:31:00,74.1,72.3,30.24,NNW,333,0.0,0.0,94,0.00,,---,0.00,VWS V13.01,2013-07-15 10:31:00,
2013-07-15 06:36:00,74.1,72.3,30.24,NNW,333,0.0,0.0,94,0.00,,---,0.00,VWS V13.01,2013-07-15 10:36:00,
2013-07-15 06:41:00,74.2,72.4,30.24,NW,322,0.0,0.0,94,0.00,,---,0.00,VWS V13.01,2013-07-15 10:41:00,
2013-07-15 06:46:00,74.3,72.5,30.24,NNW,327,0.0,0.0,94,0.00,,---,0.00,VWS V13.01,2013-07-15 10:46:00,
2013-07-15 06:51:00,74.4,72.6,30.24,NNW,327,0.0,0.0,94,0.00,,---,0.00,VWS V13.01,2013-07-15 10:51:00,
2013-07-15 06:56:00,74.5,72.7,30.24,NW,306,0.0,1.0,94,0.00,,---,0.00,VWS V13.01,2013-07-15 10:56:00,
2013-07-15 07:01:00,74.7,72.9,30.24,NW,313,0.0,0.0,94,0.00,,---,0.00,VWS V13.01,2013-07-15 11:01:00,
2013-07-15 07:06:00,74.8,73.0,30.24,NW,316,0.0,0.0,94,0.00,,---,0.00,VWS V13.01,2013-07-15 11:06:00,
2013-07-15 07:11:00,75.1,73.3,30.24,NW,316,0.0,1.0,94,0.00,,---,0.00,VWS V13.01,2013-07-15 11:11:00,
2013-07-15 07:16:00,75.3,73.5,30.24,WNW,301,0.0,0.0,94,0.00,,---,0.00,VWS V13.01,2013-07-15 11:16:00,
2013-07-15 07:21:00,75.5,73.7,30.24,NW,313,0.0,0.0,94,0.00,,---,0.00,VWS V13.01,2013-07-15 11:21:00,
2013-07-15 07:26:00,75.8,73.9,30.24,NW,313,0.0,0.0,94,0.00,,---,0.00,VWS V13.01,2013-07-15 11:26:00,
2013-07-15 07:31:00,76.1,73.9,30.24,WNW,296,0.0,0.0,93,0.00,,---,0.00,VWS V13.01,2013-07-15 11:31:00,
2013-07-15 07:36:00,76.5,74.3,30.24,WNW,291,0.0,0.0,93,0.00,,---,0.00,VWS V13.01,2013-07-15 11:36:00,
2013-07-15 07:41:00,76.8,74.6,30.24,West,279,0.0,0.0,93,0.00,,---,0.00,VWS V13.01,2013-07-15 11:41:00,
2013-07-15 07:46:00,77.2,74.7,30.24,NNW,336,0.0,0.0,92,0.00,,---,0.00,VWS V13.01,2013-07-15 11:46:00,
2013-07-15 07:51:00,77.5,74.7,30.24,NNW,338,0.0,0.0,91,0.00,,---,0.00,VWS V13.01,2013-07-15 11:51:00,
2013-07-15 07:56:00,77.9,74.7,30.24,WNW,302,0.0,0.0,90,0.00,,---,0.00,VWS V13.01,2013-07-15 11:56:00,
2013-07-15 08:01:00,78.2,75.0,30.24,NNW,328,0.0,0.0,90,0.00,,---,0.00,VWS V13.01,2013-07-15 12:01:00,
2013-07-15 08:06:00,78.6,75.1,30.24,NNW,327,0.0,0.0,89,0.00,,---,0.00,VWS V13.01,2013-07-15 12:06:00,
2013-07-15 08:11:00,78.9,75.4,30.24,NW,319,0.0,0.0,89,0.00,,---,0.00,VWS V13.01,2013-07-15 12:11:00,
2013-07-15 08:16:00,79.3,75.4,30.24,North,355,0.0,0.0,88,0.00,,---,0.00,VWS V13.01,2013-07-15 12:16:00,
2013-07-15 08:21:00,79.7,75.5,30.24,WNW,302,2.0,2.0,87,0.00,,---,0.00,VWS V13.01,2013-07-15 12:21:00,
2013-07-15 08:26:00,80.1,75.5,30.24,NW,304,0.0,5.0,86,0.00,,---,0.00,VWS V13.01,2013-07-15 12:26:00,
2013-07-15 08:31:00,80.4,75.5,30.24,NW,323,0.0,0.0,85,0.00,,---,0.00,VWS V13.01,2013-07-15 12:31:00,
2013-07-15 08:36:00,80.8,75.9,30.24,NW,317,1.0,1.0,85,0.00,,---,0.00,VWS V13.01,2013-07-15 12:36:00,
2013-07-15 08:41:00,81.2,75.9,30.24,NNE,22,2.0,9.0,84,0.00,,---,0.00,VWS V13.01,2013-07-15 12:41:00,
2013-07-15 08:46:00,81.5,75.8,30.24,NW,313,0.0,0.0,83,0.00,,---,0.00,VWS V13.01,2013-07-15 12:46:00,
2013-07-15 08:51:00,81.7,76.0,30.24,NW,306,0.0,0.0,83,0.00,,---,0.00,VWS V13.01,2013-07-15 12:51:00,
2013-07-15 08:56:00,82.0,76.0,30.23,WNW,298,0.0,0.0,82,0.00,,---,0.00,VWS V13.01,2013-07-15 12:56:00,
2013-07-15 09:01:00,82.2,76.2,30.23,NNW,336,0.0,0.0,82,0.00,,---,0.00,VWS V13.01,2013-07-15 13:01:00,
2013-07-15 09:05:00,82.5,76.4,30.23,NNW,339,0.0,0.0,82,0.00,,---,0.00,VWS V13.01,2013-07-15 13:05:00,
2013-07-15 09:10:00,82.7,76.3,30.23,NNW,331,0.0,0.0,81,0.00,,---,0.00,VWS V13.01,2013-07-15 13:10:00,
2013-07-15 09:15:00,83.0,76.6,30.23,West,278,3.0,3.0,81,0.00,,---,0.00,VWS V13.01,2013-07-15 13:15:00,
2013-07-15 09:20:00,83.3,76.1,30.23,WSW,246,0.0,0.0,79,0.00,,---,0.00,VWS V13.01,2013-07-15 13:20:00,
2013-07-15 09:25:00,83.4,76.2,30.23,NW,309,0.0,0.0,79,0.00,,---,0.00,VWS V13.01,2013-07-15 13:25:00,
2013-07-15 09:30:00,83.6,76.4,30.23,WNW,290,2.0,2.0,79,0.00,,---,0.00,VWS V13.01,2013-07-15 13:30:00,
2013-07-15 09:35:00,83.8,76.2,30.22,NNW,328,0.0,0.0,78,0.00,,---,0.00,VWS V13.01,2013-07-15 13:35:00,
2013-07-15 09:40:00,84.0,76.4,30.22,West,281,0.0,0.0,78,0.00,,---,0.00,VWS V13.01,2013-07-15 13:40:00,
2013-07-15 09:45:00,84.3,76.7,30.22,NW,317,0.0,1.0,78,0.00,,---,0.00,VWS V13.01,2013-07-15 13:45:00,
2013-07-15 09:50:00,84.6,76.6,30.22,West,281,3.0,4.0,77,0.00,,---,0.00,VWS V13.01,2013-07-15 13:50:00,
2013-07-15 09:55:00,84.7,76.3,30.22,WNW,292,0.0,1.0,76,0.00,,---,0.00,VWS V13.01,2013-07-15 13:55:00,
2013-07-15 10:00:00,84.9,76.1,30.22,WNW,300,9.0,9.0,75,0.00,,---,0.00,VWS V13.01,2013-07-15 14:00:00,
2013-07-15 10:05:00,85.2,76.4,30.22,NW,324,0.0,0.0,75,0.00,,---,0.00,VWS V13.01,2013-07-15 14:05:00,
2013-07-15 10:10:00,85.4,76.2,30.22,West,273,0.0,3.0,74,0.00,,---,0.00,VWS V13.01,2013-07-15 14:10:00,
2013-07-15 10:15:00,85.6,76.4,30.22,SW,234,0.0,3.0,74,0.00,,---,0.00,VWS V13.01,2013-07-15 14:15:00,
2013-07-15 10:20:00,85.7,76.5,30.21,WSW,242,5.0,5.0,74,0.00,,---,0.00,VWS V13.01,2013-07-15 14:20:00,
2013-07-15 10:25:00,85.8,75.7,30.21,NNW,332,0.0,1.0,72,0.00,,---,0.00,VWS V13.01,2013-07-15 14:25:00,
2013-07-15 10:30:00,86.0,75.9,30.21,North,5,0.0,0.0,72,0.00,,---,0.00,VWS V13.01,2013-07-15 14:30:00,
2013-07-15 10:35:00,86.2,76.5,30.21,NW,304,0.0,0.0,73,0.00,,---,0.00,VWS V13.01,2013-07-15 14:35:00,
2013-07-15 10:40:00,86.5,76.8,30.21,NNW,331,5.0,9.0,73,0.00,,---,0.00,VWS V13.01,2013-07-15 14:40:00,
2013-07-15 10:45:00,86.9,76.4,30.20,WNW,299,0.0,0.0,71,0.00,,---,0.00,VWS V13.01,2013-07-15 14:45:00,
2013-07-15 10:50:00,87.2,76.7,30.21,WNW,300,0.0,1.0,71,0.00,,---,0.00,VWS V13.01,2013-07-15 14:50:00,
2013-07-15 10:55:00,87.4,76.4,30.21,West,262,0.0,3.0,70,0.00,,---,0.00,VWS V13.01,2013-07-15 14:55:00,
2013-07-15 11:01:00,87.5,76.1,30.20,NNW,340,0.0,10.0,69,0.00,,---,0.00,VWS V13.01,2013-07-15 15:01:00,
2013-07-15 11:06:00,87.6,76.2,30.20,NNW,336,2.0,3.0,69,0.00,,---,0.00,VWS V13.01,2013-07-15 15:06:00,
2013-07-15 11:11:00,87.8,75.9,30.20,NW,317,0.0,1.0,68,0.00,,---,0.00,VWS V13.01,2013-07-15 15:11:00,
2013-07-15 11:16:00,88.1,76.7,30.20,NW,309,0.0,5.0,69,0.00,,---,0.00,VWS V13.01,2013-07-15 15:16:00,
2013-07-15 11:21:00,88.3,76.0,30.20,NNE,13,1.0,5.0,67,0.00,,---,0.00,VWS V13.01,2013-07-15 15:21:00,
2013-07-15 11:26:00,88.5,76.2,30.20,NW,306,2.0,2.0,67,0.00,,---,0.00,VWS V13.01,2013-07-15 15:26:00,
2013-07-15 11:31:00,88.7,75.4,30.20,NW,310,0.0,4.0,65,0.00,,---,0.00,VWS V13.01,2013-07-15 15:31:00,
2013-07-15 11:36:00,88.7,75.4,30.20,NNW,331,2.0,5.0,65,0.00,,---,0.00,VWS V13.01,2013-07-15 15:36:00,
2013-07-15 11:41:00,89.0,76.6,30.20,WNW,297,0.0,1.0,67,0.00,,---,0.00,VWS V13.01,2013-07-15 15:41:00,
2013-07-15 11:47:00,89.2,76.8,30.20,NW,312,0.0,0.0,67,0.00,,---,0.00,VWS V13.01,2013-07-15 15:47:00,
2013-07-15 11:52:00,89.5,76.2,30.20,West,277,0.0,1.0,65,0.00,,---,0.00,VWS V13.01,2013-07-15 15:52:00,
2013-07-15 11:57:00,89.8,76.5,30.19,NNW,331,0.0,1.0,65,0.00,,---,0.00,VWS V13.01,2013-07-15 15:57:00,
2013-07-15 12:02:00,90.1,76.8,30.19,NW,321,0.0,3.0,65,0.00,,---,0.00,VWS V13.01,2013-07-15 16:02:00,
2013-07-15 12:07:00,90.4,76.6,30.19,West,276,4.0,8.0,64,0.00,,---,0.00,VWS V13.01,2013-07-15 16:07:00,
2013-07-15 12:12:00,90.6,76.3,30.19,NW,304,0.0,2.0,63,0.00,,---,0.00,VWS V13.01,2013-07-15 16:12:00,
2013-07-15 12:17:00,90.8,75.5,30.19,NW,313,1.0,6.0,61,0.00,,---,0.00,VWS V13.01,2013-07-15 16:17:00,
2013-07-15 12:22:00,90.9,76.1,30.19,West,260,0.0,4.0,62,0.00,,---,0.00,VWS V13.01,2013-07-15 16:22:00,
2013-07-15 12:27:00,91.1,76.3,30.19,NNW,329,4.0,4.0,62,0.00,,---,0.00,VWS V13.01,2013-07-15 16:27:00,
2013-07-15 12:32:00,91.1,75.8,30.19,NW,317,0.0,1.0,61,0.00,,---,0.00,VWS V13.01,2013-07-15 16:32:00,
2013-07-15 12:37:00,91.1,76.3,30.19,NW,321,0.0,3.0,62,0.00,,---,0.00,VWS V13.01,2013-07-15 16:37:00,
2013-07-15 12:42:00,91.2,76.4,30.19,WNW,284,0.0,0.0,62,0.00,,---,0.00,VWS V13.01,2013-07-15 16:42:00,
2013-07-15 12:47:00,91.5,77.1,30.18,WNW,290,0.0,1.0,63,0.00,,---,0.00,VWS V13.01,2013-07-15 16:47:00,
2013-07-15 12:52:00,92.0,76.1,30.18,WNW,302,5.0,10.0,60,0.00,,---,0.00,VWS V13.01,2013-07-15 16:52:00,
2013-07-15 12:58:00,92.2,75.8,30.18,NW,323,0.0,0.0,59,0.00,,---,0.00,VWS V13.01,2013-07-15 16:58:00,
2013-07-15 13:03:00,92.4,76.5,30.18,NW,319,0.0,0.0,60,0.00,,---,0.00,VWS V13.01,2013-07-15 17:03:00,
2013-07-15 13:08:00,92.6,76.7,30.18,NNE,31,0.0,1.0,60,0.00,,---,0.00,VWS V13.01,2013-07-15 17:08:00,
2013-07-15 13:13:00,92.7,75.8,30.17,North,360,3.0,3.0,58,0.00,,---,0.00,VWS V13.01,2013-07-15 17:13:00,
2013-07-15 13:18:00,92.2,75.3,30.17,WNW,303,1.0,4.0,58,0.00,,---,0.00,VWS V13.01,2013-07-15 17:18:00,
2013-07-15 13:23:00,91.9,75.0,30.17,North,355,3.0,3.0,58,0.00,,---,0.00,VWS V13.01,2013-07-15 17:23:00,
2013-07-15 13:28:00,92.1,75.7,30.17,NW,324,6.0,6.0,59,0.00,,---,0.00,VWS V13.01,2013-07-15 17:28:00,
2013-07-15 13:33:00,92.2,75.8,30.17,West,278,1.0,1.0,59,0.00,,---,0.00,VWS V13.01,2013-07-15 17:33:00,
2013-07-15 13:38:00,92.6,75.7,30.17,NNW,346,0.0,4.0,58,0.00,,---,0.00,VWS V13.01,2013-07-15 17:38:00,
2013-07-15 13:43:00,93.0,75.5,30.17,NW,316,5.0,6.0,57,0.00,,---,0.00,VWS V13.01,2013-07-15 17:43:00,
2013-07-15 13:48:00,93.3,76.3,30.16,NNE,18,0.0,0.0,58,0.00,,---,0.00,VWS V13.01,2013-07-15 17:48:00,
2013-07-15 13:53:00,93.7,76.2,30.16,NNW,344,7.0,10.0,57,0.00,,---,0.00,VWS V13.01,2013-07-15 17:53:00,
2013-07-15 13:58:00,93.7,76.7,30.16,WNW,288,0.0,1.0,58,0.00,,---,0.00,VWS V13.01,2013-07-15 17:58:00,
2013-07-15 14:03:00,93.8,76.3,30.16,WNW,289,0.0,2.0,57,0.00,,---,0.00,VWS V13.01,2013-07-15 18:03:00,
2013-07-15 14:08:00,94.0,74.8,30.16,West,277,4.0,10.0,54,0.00,,---,0.00,VWS V13.01,2013-07-15 18:08:00,
2013-07-15 14:13:00,94.0,74.3,30.16,NW,309,0.0,6.0,53,0.00,,---,0.00,VWS V13.01,2013-07-15 18:13:00,
2013-07-15 14:19:00,94.0,74.8,30.16,North,351,4.0,4.0,54,0.00,,---,0.00,VWS V13.01,2013-07-15 18:19:00,
2013-07-15 14:24:00,93.8,75.2,30.16,NW,304,0.0,0.0,55,0.00,,---,0.00,VWS V13.01,2013-07-15 18:24:00,
2013-07-15 14:29:00,93.7,74.6,30.16,NNE,25,0.0,4.0,54,0.00,,---,0.00,VWS V13.01,2013-07-15 18:29:00,
2013-07-15 14:34:00,93.6,75.0,30.16,North,351,0.0,0.0,55,0.00,,---,0.00,VWS V13.01,2013-07-15 18:34:00,
2013-07-15 14:39:00,93.6,75.6,30.16,WNW,300,2.0,2.0,56,0.00,,---,0.00,VWS V13.01,2013-07-15 18:39:00,
2013-07-15 14:45:00,93.8,74.7,30.16,NW,309,3.0,3.0,54,0.00,,---,0.00,VWS V13.01,2013-07-15 18:45:00,
2013-07-15 14:50:00,94.1,74.9,30.15,WNW,291,0.0,1.0,54,0.00,,---,0.00,VWS V13.01,2013-07-15 18:50:00,
2013-07-15 14:55:00,94.4,74.6,30.15,WNW,290,0.0,3.0,53,0.00,,---,0.00,VWS V13.01,2013-07-15 18:55:00,
2013-07-15 15:00:00,94.4,74.1,30.15,NW,308,1.0,4.0,52,0.00,,---,0.00,VWS V13.01,2013-07-15 19:00:00,
2013-07-15 15:05:00,94.2,73.9,30.15,NNE,31,2.0,7.0,52,0.00,,---,0.00,VWS V13.01,2013-07-15 19:05:00,
2013-07-15 15:10:00,93.9,74.2,30.14,NNW,348,0.0,2.0,53,0.00,,---,0.00,VWS V13.01,2013-07-15 19:10:00,
2013-07-15 15:15:00,94.0,74.3,30.14,WNW,296,4.0,10.0,53,0.00,,---,0.00,VWS V13.01,2013-07-15 19:15:00,
2013-07-15 15:20:00,94.0,74.3,30.14,WNW,288,0.0,3.0,53,0.00,,---,0.00,VWS V13.01,2013-07-15 19:20:00,
2013-07-15 15:25:00,93.9,74.2,30.14,North,360,0.0,3.0,53,0.00,,---,0.00,VWS V13.01,2013-07-15 19:25:00,
2013-07-15 15:30:00,93.8,74.7,30.14,NE,42,6.0,7.0,54,0.00,,---,0.00,VWS V13.01,2013-07-15 19:30:00,
2013-07-15 15:35:00,93.6,75.0,30.14,NW,323,0.0,1.0,55,0.00,,---,0.00,VWS V13.01,2013-07-15 19:35:00,
2013-07-15 15:41:00,93.6,75.0,30.14,NNW,330,4.0,4.0,55,0.00,,---,0.00,VWS V13.01,2013-07-15 19:41:00,
2013-07-15 15:46:00,93.6,75.6,30.14,NW,311,0.0,0.0,56,0.00,,---,0.00,VWS V13.01,2013-07-15 19:46:00,
2013-07-15 15:51:00,93.8,75.2,30.13,WNW,300,0.0,0.0,55,0.00,,---,0.00,VWS V13.01,2013-07-15 19:51:00,
2013-07-15 15:56:00,93.8,75.7,30.13,NNW,338,0.0,0.0,56,0.00,,---,0.00,VWS V13.01,2013-07-15 19:56:00,
2013-07-15 16:01:00,93.8,76.3,30.13,NNE,23,0.0,0.0,57,0.00,,---,0.00,VWS V13.01,2013-07-15 20:01:00,
2013-07-15 16:06:00,93.8,75.2,30.13,WNW,285,0.0,0.0,55,0.00,,---,0.00,VWS V13.01,2013-07-15 20:06:00,
2013-07-15 16:11:00,93.9,75.8,30.13,NW,320,0.0,4.0,56,0.00,,---,0.00,VWS V13.01,2013-07-15 20:11:00,
2013-07-15 16:16:00,93.8,75.2,30.13,WNW,285,0.0,3.0,55,0.00,,---,0.00,VWS V13.01,2013-07-15 20:16:00,
2013-07-15 16:21:00,93.7,76.2,30.13,NW,318,0.0,2.0,57,0.00,,---,0.00,VWS V13.01,2013-07-15 20:21:00,
2013-07-15 16:26:00,93.5,76.5,30.12,NW,321,2.0,2.0,58,0.00,,---,0.00,VWS V13.01,2013-07-15 20:26:00,
2013-07-15 16:31:00,93.3,75.3,30.12,NW,309,0.0,1.0,56,0.00,,---,0.00,VWS V13.01,2013-07-15 20:31:00,
2013-07-15 16:36:00,93.2,75.7,30.12,WNW,292,3.0,7.0,57,0.00,,---,0.00,VWS V13.01,2013-07-15 20:36:00,
2013-07-15 16:41:00,93.1,75.6,30.12,WNW,290,0.0,0.0,57,0.00,,---,0.00,VWS V13.01,2013-07-15 20:41:00,
2013-07-15 16:46:00,93.0,75.5,30.12,NW,307,0.0,0.0,57,0.00,,---,0.00,VWS V13.01,2013-07-15 20:46:00,
2013-07-15 16:51:00,92.9,76.5,30.12,NW,308,0.0,1.0,59,0.00,,---,0.00,VWS V13.01,2013-07-15 20:51:00,
2013-07-15 16:56:00,92.7,75.8,30.12,NNE,19,0.0,3.0,58,0.00,,---,0.00,VWS V13.01,2013-07-15 20:56:00,
2013-07-15 17:01:00,92.6,76.7,30.12,East,94,0.0,1.0,60,0.00,,---,0.00,VWS V13.01,2013-07-15 21:01:00,
2013-07-15 17:06:00,92.7,75.8,30.12,NW,306,1.0,6.0,58,0.00,,---,0.00,VWS V13.01,2013-07-15 21:06:00,
2013-07-15 17:11:00,92.7,75.8,30.12,NNW,327,2.0,5.0,58,0.00,,---,0.00,VWS V13.01,2013-07-15 21:11:00,
2013-07-15 17:17:00,92.5,75.1,30.11,West,267,0.0,6.0,57,0.00,,---,0.00,VWS V13.01,2013-07-15 21:17:00,
2013-07-15 17:22:00,92.5,75.6,30.11,WNW,297,0.0,4.0,58,0.00,,---,0.00,VWS V13.01,2013-07-15 21:22:00,
2013-07-15 17:27:00,92.5,74.5,30.11,NW,321,1.0,1.0,56,0.00,,---,0.00,VWS V13.01,2013-07-15 21:27:00,
2013-07-15 17:32:00,92.4,76.0,30.11,WNW,286,0.0,0.0,59,0.00,,---,0.00,VWS V13.01,2013-07-15 21:32:00,
2013-07-15 17:37:00,92.4,76.0,30.11,North,360,5.0,7.0,59,0.00,,---,0.00,VWS V13.01,2013-07-15 21:37:00,
2013-07-15 17:42:00,92.4,75.5,30.11,NNE,20,1.0,3.0,58,0.00,,---,0.00,VWS V13.01,2013-07-15 21:42:00,
2013-07-15 17:47:00,92.4,76.5,30.11,NW,311,0.0,1.0,60,0.00,,---,0.00,VWS V13.01,2013-07-15 21:47:00,
2013-07-15 17:52:00,92.3,76.9,30.11,NNW,329,0.0,1.0,61,0.00,,---,0.00,VWS V13.01,2013-07-15 21:52:00,
2013-07-15 17:57:00,92.2,76.8,30.10,NW,322,0.0,1.0,61,0.00,,---,0.00,VWS V13.01,2013-07-15 21:57:00,
2013-07-15 18:02:00,92.1,76.7,30.10,WNW,299,0.0,6.0,61,0.00,,---,0.00,VWS V13.01,2013-07-15 22:02:00,
2013-07-15 18:07:00,92.0,76.6,30.10,NW,326,0.0,4.0,61,0.00,,---,0.00,VWS V13.01,2013-07-15 22:07:00,
2013-07-15 18:12:00,91.9,76.5,30.10,NW,306,0.0,2.0,61,0.00,,---,0.00,VWS V13.01,2013-07-15 22:12:00,
2013-07-15 18:17:00,91.8,76.4,30.10,West,275,5.0,5.0,61,0.00,,---,0.00,VWS V13.01,2013-07-15 22:17:00,
2013-07-15 18:22:00,91.7,76.8,30.10,NW,324,1.0,6.0,62,0.00,,---,0.00,VWS V13.01,2013-07-15 22:22:00,
2013-07-15 18:27:00,91.5,76.7,30.10,NW,321,0.0,1.0,62,0.00,,---,0.00,VWS V13.01,2013-07-15 22:27:00,
2013-07-15 18:32:00,91.4,76.6,30.11,NW,307,0.0,5.0,62,0.00,,---,0.00,VWS V13.01,2013-07-15 22:32:00,
2013-07-15 18:37:00,91.3,76.5,30.11,WNW,300,0.0,0.0,62,0.00,,---,0.00,VWS V13.01,2013-07-15 22:37:00,
2013-07-15 18:42:00,91.2,76.4,30.11,NW,314,0.0,0.0,62,0.00,,---,0.00,VWS V13.01,2013-07-15 22:42:00,
2013-07-15 18:47:00,91.1,76.8,30.11,North,360,0.0,1.0,63,0.00,,---,0.00,VWS V13.01,2013-07-15 22:47:00,
2013-07-15 18:52:00,91.0,76.7,30.11,WNW,289,0.0,5.0,63,0.00,,---,0.00,VWS V13.01,2013-07-15 22:52:00,
2013-07-15 18:58:00,91.0,76.7,30.11,NW,317,1.0,2.0,63,0.00,,---,0.00,VWS V13.01,2013-07-15 22:58:00,
2013-07-15 19:03:00,90.8,76.5,30.11,WNW,298,5.0,5.0,63,0.00,,---,0.00,VWS V13.01,2013-07-15 23:03:00,
2013-07-15 19:08:00,90.7,76.4,30.11,WNW,293,0.0,0.0,63,0.00,,---,0.00,VWS V13.01,2013-07-15 23:08:00,
2013-07-15 19:13:00,90.6,76.8,30.11,WNW,284,0.0,0.0,64,0.00,,---,0.00,VWS V13.01,2013-07-15 23:13:00,
2013-07-15 19:18:00,90.4,76.6,30.11,WNW,296,0.0,0.0,64,0.00,,---,0.00,VWS V13.01,2013-07-15 23:18:00,
2013-07-15 19:23:00,90.3,76.9,30.11,NW,317,2.0,2.0,65,0.00,,---,0.00,VWS V13.01,2013-07-15 23:23:00,
2013-07-15 19:28:00,90.2,76.8,30.11,NW,304,0.0,5.0,65,0.00,,---,0.00,VWS V13.01,2013-07-15 23:28:00,
2013-07-15 19:33:00,90.1,76.8,30.11,NNW,328,0.0,3.0,65,0.00,,---,0.00,VWS V13.01,2013-07-15 23:33:00,
2013-07-15 19:38:00,90.0,76.7,30.11,WNW,288,0.0,0.0,65,0.00,,---,0.00,VWS V13.01,2013-07-15 23:38:00,
2013-07-15 19:43:00,89.9,77.0,30.11,WNW,289,0.0,2.0,66,0.00,,---,0.00,VWS V13.01,2013-07-15 23:43:00,
2013-07-15 19:48:00,89.7,76.8,30.11,WNW,289,0.0,0.0,66,0.00,,---,0.00,VWS V13.01,2013-07-15 23:48:00,
2013-07-15 19:53:00,89.6,77.2,30.11,WNW,291,0.0,3.0,67,0.00,,---,0.00,VWS V13.01,2013-07-15 23:53:00,
2013-07-15 19:58:00,89.5,77.1,30.11,WNW,300,1.0,1.0,67,0.00,,---,0.00,VWS V13.01,2013-07-15 23:58:00,
2013-07-15 20:03:00,89.4,77.4,30.11,NW,310,0.0,5.0,68,0.00,,---,0.00,VWS V13.01,2013-07-16 00:03:00,
2013-07-15 20:08:00,89.3,77.4,30.11,NW,306,0.0,0.0,68,0.00,,---,0.00,VWS V13.01,2013-07-16 00:08:00,
2013-07-15 20:13:00,89.1,77.2,30.11,NW,306,0.0,0.0,68,0.00,,---,0.00,VWS V13.01,2013-07-16 00:13:00,
2013-07-15 20:18:00,89.0,77.5,30.11,NW,306,0.0,0.0,69,0.00,,---,0.00,VWS V13.01,2013-07-16 00:18:00,
2013-07-15 20:23:00,88.8,77.3,30.11,WNW,301,1.0,5.0,69,0.00,,---,0.00,VWS V13.01,2013-07-16 00:23:00,
2013-07-15 20:28:00,88.7,77.2,30.10,NW,315,0.0,0.0,69,0.00,,---,0.00,VWS V13.01,2013-07-16 00:28:00,
2013-07-15 20:33:00,88.6,77.1,30.10,NW,315,0.0,3.0,69,0.00,,---,0.00,VWS V13.01,2013-07-16 00:33:00,
2013-07-15 20:38:00,88.4,77.4,30.10,NW,315,0.0,0.0,70,0.00,,---,0.00,VWS V13.01,2013-07-16 00:38:00,
2013-07-15 20:43:00,88.4,77.4,30.11,NW,315,0.0,0.0,70,0.00,,---,0.00,VWS V13.01,2013-07-16 00:43:00,
2013-07-15 20:48:00,88.3,77.3,30.11,NW,315,0.0,0.0,70,0.00,,---,0.00,VWS V13.01,2013-07-16 00:48:00,
2013-07-15 20:53:00,88.2,77.2,30.11,NW,315,0.0,0.0,70,0.00,,---,0.00,VWS V13.01,2013-07-16 00:53:00,
2013-07-15 20:58:00,88.1,77.5,30.11,NW,315,0.0,0.0,71,0.00,,---,0.00,VWS V13.01,2013-07-16 00:58:00,
2013-07-15 21:03:00,87.9,77.3,30.11,NW,315,0.0,0.0,71,0.00,,---,0.00,VWS V13.01,2013-07-16 01:03:00,
2013-07-15 21:08:00,87.7,77.6,30.11,NW,315,0.0,0.0,72,0.00,,---,0.00,VWS V13.01,2013-07-16 01:08:00,
2013-07-15 21:13:00,87.5,77.4,30.11,NW,315,0.0,0.0,72,0.00,,---,0.00,VWS V13.01,2013-07-16 01:13:00,
2013-07-15 21:18:00,87.3,77.6,30.11,NW,315,0.0,0.0,73,0.00,,---,0.00,VWS V13.01,2013-07-16 01:18:00,
2013-07-15 21:23:00,87.0,77.3,30.11,NW,315,0.0,0.0,73,0.00,,---,0.00,VWS V13.01,2013-07-16 01:23:00,
2013-07-15 21:28:00,86.9,77.2,30.12,NW,315,0.0,0.0,73,0.00,,---,0.00,VWS V13.01,2013-07-16 01:28:00,
2013-07-15 21:33:00,86.7,77.4,30.12,NW,315,0.0,0.0,74,0.00,,---,0.00,VWS V13.01,2013-07-16 01:33:00,
2013-07-15 21:38:00,86.5,77.6,30.12,NW,315,0.0,0.0,75,0.00,,---,0.00,VWS V13.01,2013-07-16 01:38:00,
2013-07-15 21:43:00,86.3,77.4,30.12,NW,315,0.0,0.0,75,0.00,,---,0.00,VWS V13.01,2013-07-16 01:43:00,
2013-07-15 21:48:00,86.1,77.7,30.12,NW,315,0.0,0.0,76,0.00,,---,0.00,VWS V13.01,2013-07-16 01:48:00,
2013-07-15 21:53:00,85.9,77.5,30.12,NW,315,0.0,0.0,76,0.00,,---,0.00,VWS V13.01,2013-07-16 01:53:00,
2013-07-15 21:58:00,85.7,77.7,30.12,NW,315,0.0,0.0,77,0.00,,---,0.00,VWS V13.01,2013-07-16 01:58:00,
2013-07-15 22:04:00,85.5,77.5,30.12,NW,315,0.0,0.0,77,0.00,,---,0.00,VWS V13.01,2013-07-16 02:04:00,
2013-07-15 22:09:00,85.3,77.7,30.13,NW,315,0.0,0.0,78,0.00,,---,0.00,VWS V13.01,2013-07-16 02:09:00,
2013-07-15 22:14:00,85.1,77.9,30.12,NW,315,0.0,0.0,79,0.00,,---,0.00,VWS V13.01,2013-07-16 02:14:00,
2013-07-15 22:19:00,84.9,77.7,30.12,NW,315,0.0,0.0,79,0.00,,---,0.00,VWS V13.01,2013-07-16 02:19:00,
2013-07-15 22:25:00,84.7,77.5,30.13,NW,315,0.0,0.0,79,0.00,,---,0.00,VWS V13.01,2013-07-16 02:25:00,
2013-07-15 22:30:00,84.5,77.3,30.13,NW,315,0.0,0.0,79,0.00,,---,0.00,VWS V13.01,2013-07-16 02:30:00,
2013-07-15 22:35:00,84.2,77.4,30.12,NW,315,0.0,0.0,80,0.00,,---,0.00,VWS V13.01,2013-07-16 02:35:00,
2013-07-15 22:40:00,84.0,77.2,30.13,NW,315,0.0,0.0,80,0.00,,---,0.00,VWS V13.01,2013-07-16 02:40:00,
2013-07-15 22:45:00,83.9,77.4,30.12,NW,315,0.0,0.0,81,0.00,,---,0.00,VWS V13.01,2013-07-16 02:45:00,
2013-07-15 22:50:00,83.7,77.2,30.12,NW,315,0.0,0.0,81,0.00,,---,0.00,VWS V13.01,2013-07-16 02:50:00,
2013-07-15 22:55:00,83.5,77.1,30.13,NW,315,0.0,0.0,81,0.00,,---,0.00,VWS V13.01,2013-07-16 02:55:00,
2013-07-15 23:00:00,83.3,77.2,30.13,NW,315,0.0,0.0,82,0.00,,---,0.00,VWS V13.01,2013-07-16 03:00:00,
2013-07-15 23:05:00,83.2,77.1,30.12,NW,315,0.0,0.0,82,0.00,,---,0.00,VWS V13.01,2013-07-16 03:05:00,
2013-07-15 23:10:00,83.0,76.9,30.12,NW,315,0.0,0.0,82,0.00,,---,0.00,VWS V13.01,2013-07-16 03:10:00,
2013-07-15 23:15:00,82.9,76.8,30.13,NW,315,0.0,0.0,82,0.00,,---,0.00,VWS V13.01,2013-07-16 03:15:00,
2013-07-15 23:20:00,82.8,77.1,30.13,NW,315,0.0,0.0,83,0.00,,---,0.00,VWS V13.01,2013-07-16 03:20:00,
2013-07-15 23:26:00,82.7,77.0,30.13,NW,315,0.0,0.0,83,0.00,,---,0.00,VWS V13.01,2013-07-16 03:26:00,
2013-07-15 23:31:00,82.6,76.6,30.13,NW,315,0.0,0.0,82,0.00,,---,0.00,VWS V13.01,2013-07-16 03:31:00,
2013-07-15 23:36:00,82.5,76.4,30.13,NW,315,0.0,0.0,82,0.00,,---,0.00,VWS V13.01,2013-07-16 03:36:00,
2013-07-15 23:41:00,82.5,76.4,30.13,NW,315,0.0,0.0,82,0.00,,---,0.00,VWS V13.01,2013-07-16 03:41:00,
2013-07-15 23:46:00,82.5,76.4,30.13,NW,315,0.0,0.0,82,0.00,,---,0.00,VWS V13.01,2013-07-16 03:46:00,
2013-07-15 23:52:00,82.5,76.4,30.13,NW,315,0.0,0.0,82,0.00,,---,0.00,VWS V13.01,2013-07-16 03:52:00,
2013-07-15 23:57:00,82.5,76.4,30.13,NW,315,0.0,0.0,82,0.00,,---,0.00,VWS V13.01,2013-07-16 03:57:00,